createdAt,value
2018-03-20T00:00:59.653Z,100920.09
2018-03-20T00:03:27.915Z,100925.19
2018-03-20T00:05:56.186Z,100929.54
2018-03-20T00:08:24.452Z,100932.25
2018-03-20T00:10:52.738Z,100926.94
2018-03-20T00:13:21.020Z,100929.97
2018-03-20T00:15:49.278Z,100926.78
2018-03-20T00:18:17.550Z,100925.54
2018-03-20T00:20:45.819Z,100925.59
2018-03-20T00:23:14.098Z,100921.94
2018-03-20T00:25:42.359Z,100919.55
2018-03-20T00:28:10.638Z,100925.81
2018-03-20T00:30:38.907Z,100920.84
2018-03-20T00:33:07.171Z,100932.41
2018-03-20T00:35:35.440Z,100930.05
2018-03-20T00:38:03.710Z,100931.84
2018-03-20T00:40:31.987Z,100939.75
2018-03-20T00:43:00.279Z,100936.87
2018-03-20T00:45:28.544Z,100940.70
2018-03-20T00:47:56.874Z,100941.73
2018-03-20T00:50:25.158Z,100945.60
2018-03-20T00:52:53.421Z,100949.19
2018-03-20T00:55:21.690Z,100936.53
2018-03-20T00:57:49.963Z,100940.92
2018-03-20T01:00:18.220Z,100937.30
2018-03-20T01:02:46.490Z,100942.42
2018-03-20T01:05:14.766Z,100951.27
2018-03-20T01:07:43.035Z,100954.01
2018-03-20T01:10:11.298Z,100956.36
2018-03-20T01:12:39.554Z,100956.59
2018-03-20T01:15:07.818Z,100954.36
2018-03-20T01:17:36.140Z,100960.92
2018-03-20T01:20:04.363Z,100964.52
2018-03-20T01:22:32.630Z,100967.30
2018-03-20T01:25:00.914Z,100966.13
2018-03-20T01:27:29.183Z,100968.66
2018-03-20T01:29:57.444Z,100973.98
2018-03-20T01:32:25.719Z,100971.48
2018-03-20T01:34:53.973Z,100966.77
2018-03-20T01:37:22.241Z,100969.53
2018-03-20T01:39:50.506Z,100969.30
2018-03-20T01:42:20.670Z,100970.17
2018-03-20T01:44:48.947Z,100975.97
2018-03-20T01:47:17.218Z,100968.42
2018-03-20T01:49:45.478Z,100970.74
2018-03-20T01:52:13.747Z,100975.62
2018-03-20T01:54:42.019Z,100966.03
2018-03-20T01:57:10.287Z,100964.31
2018-03-20T01:59:38.551Z,100967.15
2018-03-20T02:02:06.835Z,100969.86
2018-03-20T02:04:35.103Z,100965.43
2018-03-20T02:07:03.371Z,100969.55
2018-03-20T02:09:31.643Z,100968.70
2018-03-20T02:11:59.902Z,100971.98
2018-03-20T02:14:28.178Z,100970.66
2018-03-20T02:16:56.443Z,100963.22
2018-03-20T02:19:24.699Z,100964.98
2018-03-20T02:21:52.986Z,100976.27
2018-03-20T02:24:21.246Z,100973.13
2018-03-20T02:26:49.814Z,100971.21
2018-03-20T02:29:18.075Z,100963.46
2018-03-20T02:31:46.391Z,100969.50
2018-03-20T02:34:14.654Z,100969.85
2018-03-20T02:36:42.923Z,100964.83
2018-03-20T02:39:11.567Z,100969.89
2018-03-20T02:41:39.841Z,100969.22
2018-03-20T02:44:08.099Z,100961.88
2018-03-20T02:46:37.294Z,100970.97
2018-03-20T02:49:05.566Z,100966.64
2018-03-20T02:51:33.843Z,100973.72
2018-03-20T02:54:02.123Z,100970.13
2018-03-20T02:56:30.375Z,100979.67
2018-03-20T02:59:02.242Z,100977.76
2018-03-20T03:01:30.511Z,100976.56
2018-03-20T03:03:58.780Z,100979.37
2018-03-20T03:06:27.046Z,100981.81
2018-03-20T03:08:55.315Z,100978.69
2018-03-20T03:11:23.585Z,100976.29
2018-03-20T03:13:51.847Z,100981.57
2018-03-20T03:16:20.122Z,100977.86
2018-03-20T03:18:48.384Z,100976.88
2018-03-20T03:21:16.655Z,100979.18
2018-03-20T03:23:44.936Z,100983.84
2018-03-20T03:26:13.209Z,100985.37
2018-03-20T03:28:41.482Z,100985.63
2018-03-20T03:31:09.748Z,100993.81
2018-03-20T03:33:38.023Z,100991.07
2018-03-20T03:36:06.286Z,100999.80
2018-03-20T03:38:34.546Z,101000.59
2018-03-20T03:41:02.819Z,100994.20
2018-03-20T03:43:31.083Z,100992.28
2018-03-20T03:45:59.344Z,101001.25
2018-03-20T03:48:27.605Z,100995.56
2018-03-20T03:50:55.862Z,100996.16
2018-03-20T03:53:24.128Z,100997.04
2018-03-20T03:55:52.398Z,100994.67
2018-03-20T03:58:20.664Z,100987.57
2018-03-20T04:00:48.940Z,100987.91
2018-03-20T04:03:17.194Z,100992.36
2018-03-20T04:05:45.494Z,100988.92
2018-03-20T04:08:13.758Z,100983.86
2018-03-20T04:10:42.027Z,100994.38
2018-03-20T04:13:10.300Z,100974.25
2018-03-20T04:15:38.571Z,100977.25
2018-03-20T04:18:06.869Z,100981.44
2018-03-20T04:20:35.118Z,100972.37
2018-03-20T04:23:03.383Z,100965.36
2018-03-20T04:25:31.659Z,100948.88
2018-03-20T04:27:59.927Z,100943.74
2018-03-20T04:30:28.211Z,100982.34
2018-03-20T04:32:56.478Z,100991.75
2018-03-20T04:35:24.739Z,100990.86
2018-03-20T04:37:53.023Z,100986.37
2018-03-20T04:40:21.286Z,100984.66
2018-03-20T04:42:49.563Z,100983.80
2018-03-20T04:45:17.829Z,100985.21
2018-03-20T04:47:46.618Z,100988.12
2018-03-20T04:50:14.895Z,100989.23
2018-03-20T04:52:43.149Z,100993.84
2018-03-20T04:55:11.422Z,101001.21
2018-03-20T04:57:39.687Z,100997.94
2018-03-20T05:00:07.946Z,100991.48
2018-03-20T05:02:36.219Z,100976.43
2018-03-20T05:05:04.487Z,100980.09
2018-03-20T05:07:32.754Z,100975.23
2018-03-20T05:10:01.019Z,100985.90
2018-03-20T05:12:29.283Z,100983.28
2018-03-20T05:14:57.554Z,100975.70
2018-03-20T05:17:25.814Z,100971.16
2018-03-20T05:19:59.976Z,100975.91
2018-03-20T05:22:33.958Z,100975.70
2018-03-20T05:25:02.551Z,100975.27
2018-03-20T05:27:30.819Z,100979.80
2018-03-20T05:29:59.082Z,100985.77
2018-03-20T05:32:27.363Z,100993.16
2018-03-20T05:34:55.636Z,100992.44
2018-03-20T05:37:23.910Z,100992.28
2018-03-20T05:39:52.178Z,100995.28
2018-03-20T05:42:20.450Z,100997.83
2018-03-20T05:44:48.738Z,100994.31
2018-03-20T05:47:17.350Z,100996.91
2018-03-20T05:52:57.446Z,100996.44
2018-03-20T05:55:25.715Z,101000.23
2018-03-20T05:58:05.470Z,101008.52
2018-03-20T06:00:33.745Z,101012.53
2018-03-20T06:03:18.657Z,101007.47
2018-03-20T06:05:46.934Z,101008.47
2018-03-20T06:08:15.199Z,101004.95
2018-03-20T06:10:43.462Z,101009.39
2018-03-20T06:13:11.740Z,101005.13
2018-03-20T06:15:40.009Z,100999.00
2018-03-20T06:18:08.295Z,100995.32
2018-03-20T06:20:36.558Z,101000.16
2018-03-20T06:23:04.827Z,101003.86
2018-03-20T06:25:33.186Z,101006.52
2018-03-20T06:28:01.452Z,101007.14
2018-03-20T06:30:29.714Z,101010.97
2018-03-20T06:32:57.995Z,101012.02
2018-03-20T06:35:26.271Z,101017.74
2018-03-20T06:37:54.539Z,101030.05
2018-03-20T06:40:22.812Z,101034.89
2018-03-20T06:42:51.108Z,101030.89
2018-03-20T06:45:19.374Z,101039.24
2018-03-20T06:47:47.794Z,101031.52
2018-03-20T06:50:16.068Z,101036.22
2018-03-20T06:52:44.356Z,101041.92
2018-03-20T06:55:32.453Z,101035.76
2018-03-20T06:58:00.722Z,101042.67
2018-03-20T07:00:28.990Z,101043.84
2018-03-20T07:02:57.262Z,101044.77
2018-03-20T07:05:25.524Z,101045.00
2018-03-20T07:07:53.798Z,101049.98
2018-03-20T07:10:22.063Z,101059.63
2018-03-20T07:12:50.334Z,101061.05
2018-03-20T07:15:18.614Z,101064.61
2018-03-20T07:17:46.875Z,101067.44
2018-03-20T07:20:15.155Z,101074.45
2018-03-20T07:22:43.419Z,101074.12
2018-03-20T07:25:11.682Z,101078.22
2018-03-20T07:27:39.952Z,101080.77
2018-03-20T07:30:08.211Z,101085.45
2018-03-20T07:32:36.482Z,101084.05
2018-03-20T07:35:04.759Z,101080.05
2018-03-20T07:37:33.024Z,101082.27
2018-03-20T07:40:01.303Z,101085.55
2018-03-20T07:42:29.562Z,101096.03
2018-03-20T07:44:57.847Z,101098.59
2018-03-20T07:47:26.119Z,101094.01
2018-03-20T07:49:54.388Z,101100.38
2018-03-20T07:52:22.681Z,101095.67
2018-03-20T07:54:50.930Z,101096.59
2018-03-20T07:57:19.231Z,101096.39
2018-03-20T07:59:47.499Z,101099.47
2018-03-20T08:02:15.771Z,101099.09
2018-03-20T08:04:44.043Z,101101.49
2018-03-20T08:07:12.323Z,101103.34
2018-03-20T08:09:40.603Z,101108.94
2018-03-20T08:12:08.875Z,101111.63
2018-03-20T08:14:37.167Z,101111.29
2018-03-20T08:17:05.447Z,101117.81
2018-03-20T08:19:33.772Z,101117.49
2018-03-20T08:22:02.078Z,101104.77
2018-03-20T08:24:30.348Z,101105.83
2018-03-20T08:26:58.636Z,101109.14
2018-03-20T08:29:26.923Z,101107.29
2018-03-20T08:31:55.187Z,101116.69
2018-03-20T08:34:23.804Z,101119.82
2018-03-20T08:36:52.079Z,101114.00
2018-03-20T08:39:20.360Z,101125.29
2018-03-20T08:41:48.624Z,101128.93
2018-03-20T08:44:16.895Z,101132.26
2018-03-20T08:46:45.178Z,101132.07
2018-03-20T08:49:13.459Z,101131.16
2018-03-20T08:51:41.722Z,101135.80
2018-03-20T08:54:10.203Z,101139.78
2018-03-20T08:56:38.474Z,101145.45
2018-03-20T08:59:06.759Z,101146.01
2018-03-20T09:01:35.035Z,101150.55
2018-03-20T09:04:03.307Z,101155.58
2018-03-20T09:06:31.592Z,101158.14
2018-03-20T09:08:59.862Z,101147.00
2018-03-20T09:11:28.169Z,101162.26
2018-03-20T09:13:56.438Z,101172.27
2018-03-20T09:16:24.711Z,101172.50
2018-03-20T09:21:47.519Z,101175.74
2018-03-20T09:24:15.799Z,101180.91
2018-03-20T09:26:44.075Z,101180.42
2018-03-20T09:29:12.350Z,101172.73
2018-03-20T09:31:40.644Z,101185.42
2018-03-20T09:34:08.911Z,101179.02
2018-03-20T09:36:37.200Z,101175.64
2018-03-20T09:39:05.475Z,101170.34
2018-03-20T09:41:33.922Z,101170.50
2018-03-20T09:44:02.206Z,101170.77
2018-03-20T09:46:30.503Z,101169.15
2018-03-20T09:48:58.841Z,101167.94
2018-03-20T09:51:27.059Z,101169.48
2018-03-20T09:53:55.644Z,101179.23
2018-03-20T09:56:23.919Z,101171.06
2018-03-20T09:58:52.184Z,101180.89
2018-03-20T10:01:20.471Z,101174.33
2018-03-20T10:03:48.739Z,101183.46
2018-03-20T10:06:17.051Z,101191.63
2018-03-20T10:08:45.326Z,101186.92
2018-03-20T10:11:13.598Z,101188.44
2018-03-20T10:13:41.879Z,101182.37
2018-03-20T10:16:10.154Z,101191.66
2018-03-20T10:18:38.468Z,101183.16
2018-03-20T10:21:06.736Z,101192.27
2018-03-20T10:23:35.010Z,101191.77
2018-03-20T10:26:03.290Z,101196.28
2018-03-20T10:28:31.564Z,101201.81
2018-03-20T10:30:59.831Z,101194.70
2018-03-20T10:33:28.109Z,101203.63
2018-03-20T10:35:56.398Z,101200.00
2018-03-20T10:38:24.750Z,101204.55
2018-03-20T10:40:52.967Z,101194.27
2018-03-20T10:43:21.239Z,101201.55
2018-03-20T10:45:51.446Z,101202.77
2018-03-20T10:48:19.731Z,101204.16
2018-03-20T10:50:49.320Z,101198.31
2018-03-20T10:53:19.585Z,101200.45
2018-03-20T10:55:51.894Z,101208.23
2018-03-20T10:58:20.178Z,101209.30
2018-03-20T11:00:48.932Z,101202.81
2018-03-20T11:03:17.214Z,101203.53
2018-03-20T11:05:45.490Z,101202.41
2018-03-20T11:08:13.776Z,101211.39
2018-03-20T11:10:43.064Z,101202.72
2018-03-20T11:13:11.331Z,101210.52
2018-03-20T11:15:39.635Z,101212.45
2018-03-20T11:18:07.921Z,101208.89
2018-03-20T11:20:36.222Z,101223.68
2018-03-20T11:23:04.514Z,101213.66
2018-03-20T11:25:32.776Z,101219.69
2018-03-20T11:28:01.061Z,101221.98
2018-03-20T11:30:29.326Z,101219.44
2018-03-20T11:32:57.628Z,101230.97
2018-03-20T11:35:25.888Z,101220.03
2018-03-20T11:37:54.159Z,101224.16
2018-03-20T11:40:22.551Z,101226.66
2018-03-20T11:42:51.913Z,101217.56
2018-03-20T11:45:20.205Z,101225.73
2018-03-20T11:47:48.475Z,101233.97
2018-03-20T11:50:16.755Z,101241.41
2018-03-20T11:52:45.030Z,101224.80
2018-03-20T11:55:13.295Z,101240.03
2018-03-20T11:57:41.596Z,101234.28
2018-03-20T12:00:09.887Z,101243.08
2018-03-20T12:02:38.163Z,101236.50
2018-03-20T12:05:07.551Z,101238.27
2018-03-20T12:07:35.834Z,101244.50
2018-03-20T12:10:04.103Z,101236.72
2018-03-20T12:12:32.370Z,101224.94
2018-03-20T12:15:00.639Z,101232.36
2018-03-20T12:17:30.902Z,101222.21
2018-03-20T12:20:00.047Z,101235.34
2018-03-20T12:22:29.349Z,101225.41
2018-03-20T12:24:58.566Z,101222.05
2018-03-20T12:27:26.826Z,101223.19
2018-03-20T12:29:55.118Z,101220.52
2018-03-20T12:32:23.393Z,101224.78
2018-03-20T12:34:51.655Z,101217.55
2018-03-20T12:37:19.909Z,101233.31
2018-03-20T12:39:48.171Z,101225.30
2018-03-20T12:42:16.434Z,101231.25
2018-03-20T12:44:49.588Z,101227.39
2018-03-20T12:47:17.875Z,101230.52
2018-03-20T12:49:46.128Z,101236.20
2018-03-20T12:52:14.395Z,101241.78
2018-03-20T12:54:52.439Z,101231.31
2018-03-20T12:57:20.720Z,101239.36
2018-03-20T12:59:48.983Z,101236.82
2018-03-20T13:02:17.242Z,101235.02
2018-03-20T13:04:46.851Z,101239.17
2018-03-20T13:07:15.322Z,101231.71
2018-03-20T13:09:51.061Z,101242.19
2018-03-20T13:12:19.362Z,101247.28
2018-03-20T13:14:47.630Z,101241.62
2018-03-20T13:17:15.901Z,101233.22
2018-03-20T13:19:44.169Z,101232.47
2018-03-20T13:22:12.445Z,101235.89
2018-03-20T13:24:41.706Z,101232.06
2018-03-20T13:27:09.959Z,101226.56
2018-03-20T13:29:40.218Z,101239.19
2018-03-20T13:32:21.142Z,101241.70
2018-03-20T13:34:51.430Z,101247.53
2018-03-20T13:37:19.690Z,101244.16
2018-03-20T13:39:48.021Z,101234.53
2018-03-20T13:42:16.278Z,101254.30
2018-03-20T13:44:44.539Z,101253.73
2018-03-20T13:47:13.104Z,101255.88
2018-03-20T13:49:41.367Z,101263.11
2018-03-20T13:52:09.627Z,101258.61
2018-03-20T13:54:37.895Z,101265.81
2018-03-20T13:57:06.158Z,101259.52
2018-03-20T13:59:34.442Z,101252.41
2018-03-20T14:02:02.713Z,101260.89
2018-03-20T14:04:30.989Z,101264.39
2018-03-20T14:06:59.246Z,101257.83
2018-03-20T14:09:27.508Z,101263.20
2018-03-20T14:11:55.796Z,101266.51
2018-03-20T14:14:37.207Z,101271.63
2018-03-20T14:17:05.430Z,101272.52
2018-03-20T14:19:39.243Z,101272.42
2018-03-20T14:22:07.519Z,101259.59
2018-03-20T14:24:35.784Z,101262.53
2018-03-20T14:27:04.034Z,101276.53
2018-03-20T14:29:32.311Z,101281.52
2018-03-20T14:32:00.575Z,101271.45
2018-03-20T14:34:29.815Z,101274.69
2018-03-20T14:36:58.093Z,101274.06
2018-03-20T14:39:26.358Z,101273.72
2018-03-20T14:41:54.619Z,101290.66
2018-03-20T14:44:22.883Z,101296.97
2018-03-20T14:46:51.166Z,101296.97
2018-03-20T14:49:20.359Z,101299.25
2018-03-20T14:51:48.681Z,101299.45
2018-03-20T14:54:16.938Z,101308.37
2018-03-20T14:56:45.200Z,101309.27
2018-03-20T14:59:31.116Z,101310.10
2018-03-20T15:01:59.381Z,101324.78
2018-03-20T15:04:27.638Z,101326.16
2018-03-20T15:06:56.815Z,101332.41
2018-03-20T15:09:37.567Z,101324.02
2018-03-20T15:12:05.840Z,101345.85
2018-03-20T15:14:36.013Z,101349.36
2018-03-20T15:17:04.293Z,101348.53
2018-03-20T15:19:32.562Z,101354.30
2018-03-20T15:22:00.813Z,101353.48
2018-03-20T15:24:29.087Z,101360.91
2018-03-20T15:26:57.345Z,101368.67
2018-03-20T15:29:25.891Z,101373.69
2018-03-20T15:31:54.171Z,101373.00
2018-03-20T15:34:32.543Z,101381.61
2018-03-20T15:37:01.829Z,101392.03
2018-03-20T15:39:30.044Z,101395.77
2018-03-20T15:41:58.299Z,101393.91
2018-03-20T15:44:26.564Z,101390.73
2018-03-20T15:46:54.850Z,101397.20
2018-03-20T15:49:23.118Z,101398.35
2018-03-20T15:51:51.377Z,101412.12
2018-03-20T15:54:19.655Z,101422.66
2018-03-20T15:56:48.911Z,101409.59
2018-03-20T15:59:17.178Z,101415.42
2018-03-20T16:01:45.440Z,101428.75
2018-03-20T16:04:13.704Z,101429.00
2018-03-20T16:06:46.886Z,101428.81
2018-03-20T16:09:25.378Z,101439.36
2018-03-20T16:11:53.679Z,101443.34
2018-03-20T16:14:21.951Z,101448.38
2018-03-20T16:16:50.228Z,101458.95
2018-03-20T16:19:18.501Z,101463.89
2018-03-20T16:21:46.763Z,101465.15
2018-03-20T16:24:15.038Z,101475.19
2018-03-20T16:26:43.356Z,101478.86
2018-03-20T16:29:17.436Z,101487.97
2018-03-20T16:31:45.698Z,101489.55
2018-03-20T16:34:13.974Z,101488.06
2018-03-20T16:36:42.240Z,101491.05
2018-03-20T16:39:10.510Z,101497.02
2018-03-20T16:41:38.791Z,101508.64
2018-03-20T16:44:07.047Z,101501.92
2018-03-20T16:49:08.783Z,101513.91
2018-03-20T16:51:37.039Z,101519.10
2018-03-20T16:54:05.609Z,101528.18
2018-03-20T16:56:33.863Z,101528.93
2018-03-20T16:59:02.123Z,101535.09
2018-03-20T17:01:30.386Z,101538.46
2018-03-20T17:03:58.647Z,101543.97
2018-03-20T17:06:26.950Z,101537.06
2018-03-20T17:08:55.208Z,101544.45
2018-03-20T17:11:23.464Z,101552.46
2018-03-20T17:13:51.737Z,101551.78
2018-03-20T17:16:20.001Z,101567.64
2018-03-20T17:18:48.284Z,101567.08
2018-03-20T17:21:16.540Z,101566.61
2018-03-20T17:23:44.820Z,101568.78
2018-03-20T17:26:13.087Z,101577.02
2018-03-20T17:28:41.366Z,101574.78
2018-03-20T17:31:09.693Z,101582.36
2018-03-20T17:33:37.921Z,101589.72
2018-03-20T17:36:06.175Z,101592.38
2018-03-20T17:38:34.439Z,101598.23
2018-03-20T17:41:02.702Z,101598.04
2018-03-20T17:43:30.971Z,101610.00
2018-03-20T17:45:59.239Z,101606.75
2018-03-20T17:48:27.490Z,101605.15
2018-03-20T17:50:55.767Z,101614.77
2018-03-20T17:53:24.046Z,101625.04
2018-03-20T17:55:52.357Z,101631.75
2018-03-20T17:58:20.588Z,101635.58
2018-03-20T18:00:48.842Z,101636.98
2018-03-20T18:03:17.139Z,101639.03
2018-03-20T18:05:45.395Z,101647.47
2018-03-20T18:08:13.649Z,101648.95
2018-03-20T18:10:41.911Z,101654.92
2018-03-20T18:13:10.259Z,101651.98
2018-03-20T18:15:38.951Z,101661.16
2018-03-20T18:18:07.206Z,101672.37
2018-03-20T18:20:35.467Z,101676.47
2018-03-20T18:23:03.790Z,101675.46
2018-03-20T18:25:32.091Z,101677.73
2018-03-20T18:28:00.374Z,101688.14
2018-03-20T18:30:28.590Z,101689.64
2018-03-20T18:32:56.861Z,101690.73
2018-03-20T18:35:25.127Z,101692.45
2018-03-20T18:37:53.392Z,101703.98
2018-03-20T18:40:21.662Z,101703.54
2018-03-20T18:42:49.929Z,101705.40
2018-03-20T18:45:18.180Z,101708.19
2018-03-20T18:47:46.459Z,101708.03
2018-03-20T18:50:14.735Z,101709.03
2018-03-20T18:52:43.016Z,101716.72
2018-03-20T18:55:11.273Z,101724.91
2018-03-20T18:57:39.524Z,101729.27
2018-03-20T19:00:07.825Z,101736.09
2018-03-20T19:02:36.111Z,101732.94
2018-03-20T19:05:04.378Z,101736.28
2018-03-20T19:07:32.635Z,101742.69
2018-03-20T19:10:00.905Z,101750.14
2018-03-20T19:12:29.167Z,101745.69
2018-03-20T19:14:57.426Z,101749.23
2018-03-20T19:17:25.704Z,101750.70
2018-03-20T19:19:53.962Z,101759.73
2018-03-20T19:22:24.226Z,101764.02
2018-03-20T19:24:52.490Z,101766.20
2018-03-20T19:27:20.805Z,101771.68
2018-03-20T19:29:49.088Z,101776.84
2018-03-20T19:32:17.343Z,101784.70
2018-03-20T19:34:45.598Z,101792.25
2018-03-20T19:37:14.206Z,101790.49
2018-03-20T19:39:42.471Z,101795.44
2018-03-20T19:42:10.734Z,101802.04
2018-03-20T19:44:39.011Z,101809.20
2018-03-20T19:47:07.276Z,101816.02
2018-03-20T19:49:35.550Z,101824.23
2018-03-20T19:52:04.064Z,101823.30
2018-03-20T19:54:32.331Z,101834.69
2018-03-20T19:57:00.610Z,101843.17
2018-03-20T19:59:29.211Z,101845.91
2018-03-20T20:01:57.484Z,101849.58
2018-03-20T20:04:25.743Z,101845.00
2018-03-20T20:06:54.011Z,101854.22
2018-03-20T20:09:22.284Z,101862.25
2018-03-20T20:11:50.555Z,101862.02
2018-03-20T20:14:18.831Z,101868.58
2018-03-20T20:16:47.079Z,101865.05
2018-03-20T20:19:15.342Z,101872.52
2018-03-20T20:21:43.598Z,101876.72
2018-03-20T20:24:11.878Z,101874.88
2018-03-20T20:26:41.088Z,101878.26
2018-03-20T20:29:09.338Z,101884.30
2018-03-20T20:31:37.607Z,101884.63
2018-03-20T20:34:05.862Z,101888.64
2018-03-20T20:36:34.134Z,101892.36
2018-03-20T20:39:02.392Z,101901.20
2018-03-20T20:41:30.671Z,101898.41
2018-03-20T20:43:58.941Z,101905.33
2018-03-20T20:46:27.203Z,101911.17
2018-03-20T20:48:55.813Z,101916.89
2018-03-20T20:51:24.079Z,101915.93
2018-03-20T20:53:52.351Z,101921.33
2018-03-20T20:56:20.616Z,101919.97
2018-03-20T20:58:48.892Z,101921.45
2018-03-20T21:01:19.174Z,101932.65
2018-03-20T21:03:47.434Z,101934.01
2018-03-20T21:06:15.690Z,101931.61
2018-03-20T21:08:43.951Z,101934.26
2018-03-20T21:11:18.946Z,101937.44
2018-03-20T21:13:47.223Z,101944.44
2018-03-20T21:16:15.483Z,101946.72
2018-03-20T21:18:43.736Z,101947.56
2018-03-20T21:21:12.955Z,101950.80
2018-03-20T21:23:41.211Z,101949.20
2018-03-20T21:26:09.478Z,101955.25
2018-03-20T21:28:37.738Z,101960.75
2018-03-20T21:31:05.999Z,101955.37
2018-03-20T21:33:34.310Z,101958.94
2018-03-20T21:36:02.576Z,101966.77
2018-03-20T21:38:30.847Z,101968.13
2018-03-20T21:40:59.106Z,101967.88
2018-03-20T21:43:27.360Z,101967.59
2018-03-20T21:45:55.623Z,101964.09
2018-03-20T21:48:23.903Z,101973.61
2018-03-20T21:50:52.179Z,101971.59
2018-03-20T21:53:20.442Z,101973.73
2018-03-20T21:55:48.719Z,101975.67
2018-03-20T21:58:17.006Z,101975.79
2018-03-20T22:00:45.247Z,101980.77
2018-03-20T22:03:13.562Z,101979.00
2018-03-20T22:05:41.822Z,101986.73
2018-03-20T22:08:10.118Z,101992.23
2018-03-20T22:10:38.374Z,101997.78
2018-03-20T22:13:06.645Z,102004.31
2018-03-20T22:15:35.834Z,101997.50
2018-03-20T22:18:04.087Z,101998.91
2018-03-20T22:20:32.354Z,102006.45
2018-03-20T22:23:00.607Z,102002.79
2018-03-20T22:25:28.874Z,102009.13
2018-03-20T22:27:57.155Z,102016.41
2018-03-20T22:30:25.418Z,102014.08
2018-03-20T22:32:53.675Z,102015.55
2018-03-20T22:35:25.623Z,102021.49
2018-03-20T22:37:53.885Z,102019.59
2018-03-20T22:40:22.151Z,102019.73
2018-03-20T22:42:50.411Z,102017.09
2018-03-20T22:45:18.681Z,102019.27
2018-03-20T22:47:46.943Z,102024.37
2018-03-20T22:50:15.243Z,102026.36
2018-03-20T22:52:43.503Z,102022.33
2018-03-20T22:55:11.762Z,102020.20
2018-03-20T22:57:40.028Z,102026.41
2018-03-20T23:00:08.307Z,102022.80
2018-03-20T23:02:36.571Z,102019.69
2018-03-20T23:05:04.866Z,102031.20
2018-03-20T23:07:33.143Z,102024.62
2018-03-20T23:10:01.405Z,102028.83
2018-03-20T23:12:29.674Z,102028.66
2018-03-20T23:14:57.948Z,102029.59
2018-03-20T23:17:26.235Z,102040.82
2018-03-20T23:19:54.494Z,102046.38
2018-03-20T23:22:22.766Z,102039.71
2018-03-20T23:24:51.032Z,102044.59
2018-03-20T23:27:19.284Z,102056.94
2018-03-20T23:29:47.556Z,102051.75
2018-03-20T23:32:15.819Z,102056.30
2018-03-20T23:34:44.075Z,102067.59
2018-03-20T23:37:12.339Z,102062.03
2018-03-20T23:39:40.599Z,102063.16
2018-03-20T23:42:08.883Z,102065.28
2018-03-20T23:44:37.147Z,102067.66
2018-03-20T23:47:05.415Z,102066.07
2018-03-20T23:49:33.695Z,102071.06
2018-03-20T23:52:01.951Z,102069.23
2018-03-20T23:54:30.226Z,102065.05
2018-03-20T23:56:58.488Z,102073.43
2018-03-20T23:59:26.738Z,102077.44
